sensor_id;sensor_type;location;lat;lon;timestamp;pressure;altitude;pressure_sealevel;temperature;humidity
29569;BME280;16501;51.462;14.346;2022-12-11T00:00:46;99534.38;;;-2.84;100.00
29569;BME280;16501;51.462;14.346;2022-12-11T00:03:11;99486.31;;;-3.10;100.00
29569;BME280;16501;51.462;14.346;2022-12-11T00:05:41;99504.69;;;-3.00;100.00
29569;BME280;16501;51.462;14.346;2022-12-11T00:08:06;99544.09;;;-2.65;100.00
29569;BME280;16501;51.462;14.346;2022-12-11T00:10:32;99550.38;;;-2.64;100.00
29569;BME280;16501;51.462;14.346;2022-12-11T00:12:57;99515.94;;;-2.76;100.00
29569;BME280;16501;51.462;14.346;2022-12-11T00:15:23;99527.28;;;-2.71;100.00
29569;BME280;16501;51.462;14.346;2022-12-11T00:17:48;99555.00;;;-2.47;100.00
29569;BME280;16501;51.462;14.346;2022-12-11T00:20:14;99488.59;;;-2.91;100.00
29569;BME280;16501;51.462;14.346;2022-12-11T00:22:40;99537.00;;;-2.55;100.00
29569;BME280;16501;51.462;14.346;2022-12-11T00:25:05;99520.66;;;-2.77;100.00
29569;BME280;16501;51.462;14.346;2022-12-11T00:27:31;99556.22;;;-2.59;100.00
29569;BME280;16501;51.462;14.346;2022-12-11T00:29:56;99514.34;;;-2.74;100.00
29569;BME280;16501;51.462;14.346;2022-12-11T00:32:22;99494.03;;;-2.83;100.00
29569;BME280;16501;51.462;14.346;2022-12-11T00:34:47;99498.38;;;-2.93;100.00
29569;BME280;16501;51.462;14.346;2022-12-11T00:37:12;99530.44;;;-2.76;100.00
29569;BME280;16501;51.462;14.346;2022-12-11T00:39:37;99525.31;;;-2.74;100.00
29569;BME280;16501;51.462;14.346;2022-12-11T00:42:04;99503.41;;;-2.81;100.00
29569;BME280;16501;51.462;14.346;2022-12-11T00:44:30;99521.81;;;-2.78;100.00
29569;BME280;16501;51.462;14.346;2022-12-11T00:46:55;99515.91;;;-2.73;100.00
29569;BME280;16501;51.462;14.346;2022-12-11T00:49:20;99537.47;;;-2.71;100.00
29569;BME280;16501;51.462;14.346;2022-12-11T00:51:46;99549.09;;;-2.49;100.00
29569;BME280;16501;51.462;14.346;2022-12-11T00:54:11;99549.88;;;-2.45;100.00
29569;BME280;16501;51.462;14.346;2022-12-11T00:56:37;99520.63;;;-2.73;100.00
29569;BME280;16501;51.462;14.346;2022-12-11T00:59:02;99519.81;;;-2.70;100.00
29569;BME280;16501;51.462;14.346;2022-12-11T01:01:27;99537.44;;;-2.68;100.00
29569;BME280;16501;51.462;14.346;2022-12-11T01:03:53;99496.81;;;-2.91;100.00
29569;BME280;16501;51.462;14.346;2022-12-11T01:06:20;99546.41;;;-2.60;100.00
29569;BME280;16501;51.462;14.346;2022-12-11T01:08:46;99542.13;;;-2.61;100.00
29569;BME280;16501;51.462;14.346;2022-12-11T01:11:14;99555.38;;;-2.45;100.00
29569;BME280;16501;51.462;14.346;2022-12-11T01:13:41;99542.91;;;-2.60;100.00
29569;BME280;16501;51.462;14.346;2022-12-11T01:16:13;99517.47;;;-2.72;100.00
29569;BME280;16501;51.462;14.346;2022-12-11T01:18:39;99542.88;;;-2.57;100.00
29569;BME280;16501;51.462;14.346;2022-12-11T01:21:08;99549.91;;;-2.49;100.00
29569;BME280;16501;51.462;14.346;2022-12-11T01:23:34;99515.16;;;-2.73;100.00
29569;BME280;16501;51.462;14.346;2022-12-11T01:26:11;99514.38;;;-2.81;100.00
29569;BME280;16501;51.462;14.346;2022-12-11T01:28:37;99515.13;;;-2.70;100.00
29569;BME280;16501;51.462;14.346;2022-12-11T01:31:07;99540.09;;;-2.50;100.00
29569;BME280;16501;51.462;14.346;2022-12-11T01:33:33;99469.44;;;-3.05;100.00
29569;BME280;16501;51.462;14.346;2022-12-11T01:35:58;99474.88;;;-2.98;100.00
29569;BME280;16501;51.462;14.346;2022-12-11T01:38:24;99491.34;;;-2.91;100.00
29569;BME280;16501;51.462;14.346;2022-12-11T01:40:49;99527.63;;;-2.65;100.00
29569;BME280;16501;51.462;14.346;2022-12-11T01:43:15;99540.88;;;-2.53;100.00
29569;BME280;16501;51.462;14.346;2022-12-11T01:45:42;99515.16;;;-2.77;100.00
29569;BME280;16501;51.462;14.346;2022-12-11T01:48:15;99484.69;;;-2.97;100.00
29569;BME280;16501;51.462;14.346;2022-12-11T01:50:49;99547.56;;;-2.54;100.00
29569;BME280;16501;51.462;14.346;2022-12-11T01:53:19;99503.84;;;-2.86;100.00
29569;BME280;16501;51.462;14.346;2022-12-11T01:55:46;99510.81;;;-2.71;100.00
29569;BME280;16501;51.462;14.346;2022-12-11T01:58:13;99515.56;;;-2.78;100.00
29569;BME280;16501;51.462;14.346;2022-12-11T02:00:43;99516.44;;;-2.96;100.00
29569;BME280;16501;51.462;14.346;2022-12-11T02:03:08;99544.81;;;-2.54;100.00
29569;BME280;16501;51.462;14.346;2022-12-11T02:05:33;99513.53;;;-2.67;100.00
29569;BME280;16501;51.462;14.346;2022-12-11T02:08:01;99494.06;;;-2.87;100.00
29569;BME280;16501;51.462;14.346;2022-12-11T02:10:36;99518.66;;;-2.69;100.00
29569;BME280;16501;51.462;14.346;2022-12-11T02:13:13;99521.38;;;-2.69;100.00
29569;BME280;16501;51.462;14.346;2022-12-11T02:16:02;99541.72;;;-2.56;100.00
29569;BME280;16501;51.462;14.346;2022-12-11T02:18:41;99531.97;;;-2.68;100.00
29569;BME280;16501;51.462;14.346;2022-12-11T02:21:21;99465.16;;;-3.06;100.00
29569;BME280;16501;51.462;14.346;2022-12-11T02:29:17;99484.66;;;-2.90;100.00
29569;BME280;16501;51.462;14.346;2022-12-11T02:31:49;99545.66;;;-2.64;100.00
29569;BME280;16501;51.462;14.346;2022-12-11T02:34:27;99493.28;;;-2.91;100.00
29569;BME280;16501;51.462;14.346;2022-12-11T02:36:58;99453.38;;;-3.07;100.00
29569;BME280;16501;51.462;14.346;2022-12-11T02:39:26;99531.09;;;-2.54;100.00
29569;BME280;16501;51.462;14.346;2022-12-11T02:41:53;99530.31;;;-2.51;100.00
29569;BME280;16501;51.462;14.346;2022-12-11T02:44:23;99542.44;;;-2.48;100.00
29569;BME280;16501;51.462;14.346;2022-12-11T02:46:50;99493.19;;;-2.73;100.00
29569;BME280;16501;51.462;14.346;2022-12-11T02:49:17;99510.81;;;-2.71;100.00
29569;BME280;16501;51.462;14.346;2022-12-11T02:51:45;99481.16;;;-2.94;100.00
29569;BME280;16501;51.462;14.346;2022-12-11T02:54:20;99521.75;;;-2.67;100.00
29569;BME280;16501;51.462;14.346;2022-12-11T02:56:51;99428.38;;;-3.19;100.00
29569;BME280;16501;51.462;14.346;2022-12-11T02:59:23;99533.44;;;-2.52;100.00
29569;BME280;16501;51.462;14.346;2022-12-11T03:01:50;99506.47;;;-2.64;100.00
29569;BME280;16501;51.462;14.346;2022-12-11T03:04:15;99517.84;;;-2.66;100.00
29569;BME280;16501;51.462;14.346;2022-12-11T03:06:57;99522.94;;;-2.64;100.00
29569;BME280;16501;51.462;14.346;2022-12-11T03:09:26;99517.88;;;-2.70;100.00
29569;BME280;16501;51.462;14.346;2022-12-11T03:11:52;99537.00;;;-2.59;100.00
29569;BME280;16501;51.462;14.346;2022-12-11T03:14:17;99539.75;;;-2.59;100.00
29569;BME280;16501;51.462;14.346;2022-12-11T03:16:53;99471.44;;;-3.09;100.00
29569;BME280;16501;51.462;14.346;2022-12-11T03:19:33;99511.22;;;-2.76;100.00
29569;BME280;16501;51.462;14.346;2022-12-11T03:22:10;99528.03;;;-2.63;100.00
29569;BME280;16501;51.462;14.346;2022-12-11T03:27:29;99537.06;;;-2.66;100.00
29569;BME280;16501;51.462;14.346;2022-12-11T03:30:36;99530.00;;;-2.67;100.00
29569;BME280;16501;51.462;14.346;2022-12-11T03:33:10;99531.56;;;-2.66;100.00
29569;BME280;16501;51.462;14.346;2022-12-11T03:35:48;99499.13;;;-2.89;100.00
29569;BME280;16501;51.462;14.346;2022-12-11T03:38:43;99498.69;;;-2.80;100.00
29569;BME280;16501;51.462;14.346;2022-12-11T03:41:12;99489.00;;;-3.03;100.00
29569;BME280;16501;51.462;14.346;2022-12-11T03:43:39;99413.25;;;-3.46;100.00
29569;BME280;16501;51.462;14.346;2022-12-11T03:46:07;99534.31;;;-2.66;100.00
29569;BME280;16501;51.462;14.346;2022-12-11T03:48:36;99459.72;;;-3.20;100.00
29569;BME280;16501;51.462;14.346;2022-12-11T03:51:06;99520.31;;;-2.93;100.00
29569;BME280;16501;51.462;14.346;2022-12-11T03:53:33;99531.19;;;-2.72;100.00
29569;BME280;16501;51.462;14.346;2022-12-11T03:55:59;99513.31;;;-3.05;100.00
29569;BME280;16501;51.462;14.346;2022-12-11T03:58:25;99507.81;;;-2.98;100.00
29569;BME280;16501;51.462;14.346;2022-12-11T04:00:50;99523.00;;;-2.79;100.00
29569;BME280;16501;51.462;14.346;2022-12-11T04:03:17;99450.00;;;-3.32;100.00
29569;BME280;16501;51.462;14.346;2022-12-11T04:05:47;99476.53;;;-3.08;100.00
29569;BME280;16501;51.462;14.346;2022-12-11T04:08:14;99535.13;;;-2.73;100.00
29569;BME280;16501;51.462;14.346;2022-12-11T04:10:40;99509.00;;;-2.99;100.00
29569;BME280;16501;51.462;14.346;2022-12-11T04:13:08;99516.41;;;-2.89;100.00
29569;BME280;16501;51.462;14.346;2022-12-11T04:15:34;99500.75;;;-2.95;100.00
29569;BME280;16501;51.462;14.346;2022-12-11T04:18:00;99502.69;;;-2.92;100.00
29569;BME280;16501;51.462;14.346;2022-12-11T04:20:44;99537.06;;;-2.70;100.00
29569;BME280;16501;51.462;14.346;2022-12-11T04:23:29;99471.84;;;-3.14;100.00
29569;BME280;16501;51.462;14.346;2022-12-11T04:26:15;99532.34;;;-2.66;100.00
29569;BME280;16501;51.462;14.346;2022-12-11T04:28:42;99535.84;;;-2.65;100.00
29569;BME280;16501;51.462;14.346;2022-12-11T04:31:12;99517.53;;;-2.86;100.00
29569;BME280;16501;51.462;14.346;2022-12-11T04:33:38;99505.00;;;-2.80;100.00
29569;BME280;16501;51.462;14.346;2022-12-11T04:36:04;99527.31;;;-2.78;100.00
29569;BME280;16501;51.462;14.346;2022-12-11T04:38:29;99492.53;;;-2.99;100.00
29569;BME280;16501;51.462;14.346;2022-12-11T04:41:08;99494.03;;;-2.83;100.00
29569;BME280;16501;51.462;14.346;2022-12-11T04:43:34;99520.66;;;-2.84;100.00
29569;BME280;16501;51.462;14.346;2022-12-11T04:46:01;99522.19;;;-2.72;100.00
29569;BME280;16501;51.462;14.346;2022-12-11T04:48:26;99492.94;;;-3.00;100.00
29569;BME280;16501;51.462;14.346;2022-12-11T04:50:52;99464.38;;;-3.10;100.00
29569;BME280;16501;51.462;14.346;2022-12-11T04:53:17;99523.34;;;-2.70;100.00
29569;BME280;16501;51.462;14.346;2022-12-11T04:55:42;99451.84;;;-3.08;100.00
29569;BME280;16501;51.462;14.346;2022-12-11T04:58:07;99506.50;;;-2.75;100.00
29569;BME280;16501;51.462;14.346;2022-12-11T05:00:33;99503.31;;;-2.67;100.00
29569;BME280;16501;51.462;14.346;2022-12-11T05:02:58;99458.06;;;-3.00;100.00
29569;BME280;16501;51.462;14.346;2022-12-11T05:05:23;99458.44;;;-2.98;100.00
29569;BME280;16501;51.462;14.346;2022-12-11T05:07:48;99466.25;;;-2.93;100.00
29569;BME280;16501;51.462;14.346;2022-12-11T05:10:14;99497.47;;;-2.69;100.00
29569;BME280;16501;51.462;14.346;2022-12-11T05:12:39;99472.56;;;-2.96;100.00
29569;BME280;16501;51.462;14.346;2022-12-11T05:15:05;99490.13;;;-2.86;100.00
29569;BME280;16501;51.462;14.346;2022-12-11T05:17:30;99483.84;;;-2.87;100.00
29569;BME280;16501;51.462;14.346;2022-12-11T05:19:56;99487.38;;;-2.86;100.00
29569;BME280;16501;51.462;14.346;2022-12-11T05:22:21;99438.53;;;-3.09;100.00
29569;BME280;16501;51.462;14.346;2022-12-11T05:24:48;99458.00;;;-2.93;100.00
29569;BME280;16501;51.462;14.346;2022-12-11T05:27:13;99471.34;;;-2.95;100.00
29569;BME280;16501;51.462;14.346;2022-12-11T05:29:39;99400.63;;;-3.29;100.00
29569;BME280;16501;51.462;14.346;2022-12-11T05:32:04;99398.25;;;-3.23;100.00
29569;BME280;16501;51.462;14.346;2022-12-11T05:34:29;99463.81;;;-2.76;100.00
29569;BME280;16501;51.462;14.346;2022-12-11T05:36:55;99467.72;;;-2.77;100.00
29569;BME280;16501;51.462;14.346;2022-12-11T05:39:20;99463.06;;;-2.88;100.00
29569;BME280;16501;51.462;14.346;2022-12-11T05:41:45;99474.81;;;-2.83;100.00
29569;BME280;16501;51.462;14.346;2022-12-11T05:44:12;99472.09;;;-2.87;100.00
29569;BME280;16501;51.462;14.346;2022-12-11T05:46:38;99410.75;;;-3.18;100.00
29569;BME280;16501;51.462;14.346;2022-12-11T05:49:03;99471.25;;;-2.73;100.00
29569;BME280;16501;51.462;14.346;2022-12-11T05:51:29;99443.53;;;-2.97;100.00
29569;BME280;16501;51.462;14.346;2022-12-11T05:53:56;99477.91;;;-2.74;100.00
29569;BME280;16501;51.462;14.346;2022-12-11T05:56:24;99471.28;;;-2.84;100.00
29569;BME280;16501;51.462;14.346;2022-12-11T05:58:51;99436.09;;;-2.96;100.00
29569;BME280;16501;51.462;14.346;2022-12-11T06:01:19;99474.34;;;-2.71;100.00
29569;BME280;16501;51.462;14.346;2022-12-11T06:03:45;99487.28;;;-2.68;100.00
29569;BME280;16501;51.462;14.346;2022-12-11T06:06:11;99478.28;;;-2.72;100.00
29569;BME280;16501;51.462;14.346;2022-12-11T06:11:58;99392.75;;;-3.23;100.00
29569;BME280;16501;51.462;14.346;2022-12-11T06:14:23;99475.88;;;-2.67;100.00
29569;BME280;16501;51.462;14.346;2022-12-11T06:16:48;99448.16;;;-2.83;100.00
29569;BME280;16501;51.462;14.346;2022-12-11T06:19:15;99434.53;;;-2.94;100.00
29569;BME280;16501;51.462;14.346;2022-12-11T06:21:42;99384.59;;;-3.34;100.00
29569;BME280;16501;51.462;14.346;2022-12-11T06:24:09;99482.19;;;-2.70;100.00
29569;BME280;16501;51.462;14.346;2022-12-11T06:26:35;99466.56;;;-2.76;100.00
29569;BME280;16501;51.462;14.346;2022-12-11T06:29:00;99405.69;;;-3.24;100.00
29569;BME280;16501;51.462;14.346;2022-12-11T06:31:26;99478.72;;;-2.81;100.00
29569;BME280;16501;51.462;14.346;2022-12-11T06:33:51;99454.50;;;-2.93;100.00
29569;BME280;16501;51.462;14.346;2022-12-11T06:36:19;99448.66;;;-2.99;100.00
29569;BME280;16501;51.462;14.346;2022-12-11T06:38:45;99442.06;;;-3.16;100.00
29569;BME280;16501;51.462;14.346;2022-12-11T06:41:11;99439.25;;;-3.01;100.00
29569;BME280;16501;51.462;14.346;2022-12-11T06:43:38;99463.50;;;-2.93;100.00
29569;BME280;16501;51.462;14.346;2022-12-11T06:46:22;99453.78;;;-3.05;100.00
29569;BME280;16501;51.462;14.346;2022-12-11T06:48:47;99424.09;;;-3.24;100.00
29569;BME280;16501;51.462;14.346;2022-12-11T06:51:16;99466.75;;;-3.12;100.00
29569;BME280;16501;51.462;14.346;2022-12-11T06:53:42;99398.75;;;-3.43;100.00
29569;BME280;16501;51.462;14.346;2022-12-11T06:56:13;99469.06;;;-3.07;100.00
29569;BME280;16501;51.462;14.346;2022-12-11T06:58:40;99483.97;;;-3.12;100.00
29569;BME280;16501;51.462;14.346;2022-12-11T07:01:20;99438.66;;;-3.34;100.00
29569;BME280;16501;51.462;14.346;2022-12-11T07:03:46;99403.44;;;-3.47;100.00
29569;BME280;16501;51.462;14.346;2022-12-11T07:06:12;99478.13;;;-3.21;100.00
29569;BME280;16501;51.462;14.346;2022-12-11T07:08:38;99458.97;;;-3.25;100.00
29569;BME280;16501;51.462;14.346;2022-12-11T07:11:09;99478.50;;;-3.08;100.00
29569;BME280;16501;51.462;14.346;2022-12-11T07:13:36;99459.31;;;-3.19;100.00
29569;BME280;16501;51.462;14.346;2022-12-11T07:16:02;99475.72;;;-3.01;100.00
29569;BME280;16501;51.462;14.346;2022-12-11T07:18:29;99469.84;;;-3.07;100.00
29569;BME280;16501;51.462;14.346;2022-12-11T07:20:57;99480.03;;;-3.07;100.00
29569;BME280;16501;51.462;14.346;2022-12-11T07:23:23;99446.44;;;-3.26;100.00
29569;BME280;16501;51.462;14.346;2022-12-11T07:25:48;99484.84;;;-3.26;100.00
29569;BME280;16501;51.462;14.346;2022-12-11T07:28:13;99480.09;;;-3.18;100.00
29569;BME280;16501;51.462;14.346;2022-12-11T07:30:39;99479.31;;;-3.18;100.00
29569;BME280;16501;51.462;14.346;2022-12-11T07:33:04;99484.75;;;-3.08;100.00
29569;BME280;16501;51.462;14.346;2022-12-11T07:35:33;99518.75;;;-2.91;100.00
29569;BME280;16501;51.462;14.346;2022-12-11T07:37:59;99485.94;;;-3.16;100.00
29569;BME280;16501;51.462;14.346;2022-12-11T07:40:24;99469.94;;;-3.25;100.00
29569;BME280;16501;51.462;14.346;2022-12-11T07:42:49;99481.63;;;-3.10;100.00
29569;BME280;16501;51.462;14.346;2022-12-11T07:45:15;99504.34;;;-3.09;100.00
29569;BME280;16501;51.462;14.346;2022-12-11T07:47:41;99482.88;;;-3.29;100.00
29569;BME280;16501;51.462;14.346;2022-12-11T07:50:07;99507.91;;;-3.23;100.00
29569;BME280;16501;51.462;14.346;2022-12-11T07:52:33;99448.09;;;-3.50;100.00
29569;BME280;16501;51.462;14.346;2022-12-11T07:54:58;99473.88;;;-3.33;100.00
29569;BME280;16501;51.462;14.346;2022-12-11T07:57:23;99487.56;;;-3.26;100.00
29569;BME280;16501;51.462;14.346;2022-12-11T08:00:02;99509.88;;;-3.24;100.00
29569;BME280;16501;51.462;14.346;2022-12-11T08:02:28;99493.88;;;-3.43;100.00
29569;BME280;16501;51.462;14.346;2022-12-11T08:04:53;99533.00;;;-3.25;100.00
29569;BME280;16501;51.462;14.346;2022-12-11T08:07:19;99547.44;;;-3.10;100.00
29569;BME280;16501;51.462;14.346;2022-12-11T08:09:44;99524.00;;;-3.25;100.00
29569;BME280;16501;51.462;14.346;2022-12-11T08:12:09;99510.97;;;-3.03;100.00
29569;BME280;16501;51.462;14.346;2022-12-11T08:14:37;99510.56;;;-3.01;100.00
29569;BME280;16501;51.462;14.346;2022-12-11T08:17:02;99496.88;;;-3.05;100.00
29569;BME280;16501;51.462;14.346;2022-12-11T08:19:27;99471.53;;;-3.31;100.00
29569;BME280;16501;51.462;14.346;2022-12-11T08:21:53;99497.28;;;-3.10;100.00
29569;BME280;16501;51.462;14.346;2022-12-11T08:24:18;99525.47;;;-2.99;100.00
29569;BME280;16501;51.462;14.346;2022-12-11T08:26:48;99538.78;;;-2.97;100.00
29569;BME280;16501;51.462;14.346;2022-12-11T08:29:13;99508.63;;;-3.01;100.00
29569;BME280;16501;51.462;14.346;2022-12-11T08:31:40;99514.88;;;-2.97;100.00
29569;BME280;16501;51.462;14.346;2022-12-11T08:34:07;99507.03;;;-3.02;100.00
29569;BME280;16501;51.462;14.346;2022-12-11T08:36:32;99472.25;;;-3.19;100.00
29569;BME280;16501;51.462;14.346;2022-12-11T08:38:59;99507.41;;;-3.00;100.00
29569;BME280;16501;51.462;14.346;2022-12-11T08:41:29;99470.34;;;-3.30;100.00
29569;BME280;16501;51.462;14.346;2022-12-11T08:43:55;99516.03;;;-2.94;100.00
29569;BME280;16501;51.462;14.346;2022-12-11T08:46:24;99473.44;;;-3.24;100.00
29569;BME280;16501;51.462;14.346;2022-12-11T08:48:50;99441.41;;;-3.42;100.00
29569;BME280;16501;51.462;14.346;2022-12-11T08:51:19;99520.69;;;-2.88;100.00
29569;BME280;16501;51.462;14.346;2022-12-11T08:53:45;99499.59;;;-3.05;100.00
29569;BME280;16501;51.462;14.346;2022-12-11T08:56:16;99510.59;;;-3.05;100.00
29569;BME280;16501;51.462;14.346;2022-12-11T08:58:42;99504.75;;;-3.14;100.00
29569;BME280;16501;51.462;14.346;2022-12-11T09:01:14;99414.56;;;-3.83;100.00
29569;BME280;16501;51.462;14.346;2022-12-11T09:03:40;99462.47;;;-3.20;100.00
29569;BME280;16501;51.462;14.346;2022-12-11T09:06:08;99514.44;;;-2.88;100.00
29569;BME280;16501;51.462;14.346;2022-12-11T09:08:34;99478.44;;;-3.01;100.00
29569;BME280;16501;51.462;14.346;2022-12-11T09:13:30;99496.41;;;-2.93;100.00
29569;BME280;16501;51.462;14.346;2022-12-11T09:15:55;99494.03;;;-2.83;100.00
29569;BME280;16501;51.462;14.346;2022-12-11T09:18:20;99485.84;;;-2.91;100.00
29569;BME280;16501;51.462;14.346;2022-12-11T09:20:46;99498.72;;;-2.77;100.00
29569;BME280;16501;51.462;14.346;2022-12-11T09:23:11;99500.34;;;-2.94;100.00
29569;BME280;16501;51.462;14.346;2022-12-11T09:25:39;99455.00;;;-3.13;100.00
29569;BME280;16501;51.462;14.346;2022-12-11T09:28:05;99501.09;;;-2.90;100.00
29569;BME280;16501;51.462;14.346;2022-12-11T09:30:31;99502.25;;;-2.83;100.00
29569;BME280;16501;51.462;14.346;2022-12-11T09:32:57;99418.66;;;-3.35;100.00
29569;BME280;16501;51.462;14.346;2022-12-11T09:35:23;99469.81;;;-2.96;100.00
29569;BME280;16501;51.462;14.346;2022-12-11T09:37:48;99478.38;;;-2.87;100.00
29569;BME280;16501;51.462;14.346;2022-12-11T09:40:15;99483.88;;;-2.90;100.00
29569;BME280;16501;51.462;14.346;2022-12-11T09:42:53;99492.53;;;-2.99;100.00
29569;BME280;16501;51.462;14.346;2022-12-11T09:45:22;99442.13;;;-3.27;100.00
29569;BME280;16501;51.462;14.346;2022-12-11T09:47:51;99474.50;;;-3.00;100.00
29569;BME280;16501;51.462;14.346;2022-12-11T09:50:31;99399.09;;;-3.37;100.00
29569;BME280;16501;51.462;14.346;2022-12-11T09:53:17;99447.19;;;-3.22;100.00
29569;BME280;16501;51.462;14.346;2022-12-11T09:55:55;99462.44;;;-3.10;100.00
29569;BME280;16501;51.462;14.346;2022-12-11T09:58:46;99479.97;;;-2.96;100.00
29569;BME280;16501;51.462;14.346;2022-12-11T10:04:23;99479.47;;;-2.73;100.00
29569;BME280;16501;51.462;14.346;2022-12-11T10:12:31;99489.38;;;-2.90;100.00
29569;BME280;16501;51.462;14.346;2022-12-11T10:17:47;99443.25;;;-3.13;100.00
29569;BME280;16501;51.462;14.346;2022-12-11T10:20:26;99477.56;;;-2.80;100.00
29569;BME280;16501;51.462;14.346;2022-12-11T10:22:52;99430.00;;;-3.26;100.00
29569;BME280;16501;51.462;14.346;2022-12-11T10:25:25;99446.34;;;-3.04;100.00
29569;BME280;16501;51.462;14.346;2022-12-11T10:27:52;99450.25;;;-3.05;100.00
29569;BME280;16501;51.462;14.346;2022-12-11T10:30:25;99457.69;;;-3.06;100.00
29569;BME280;16501;51.462;14.346;2022-12-11T10:33:16;99455.75;;;-3.12;100.00
29569;BME280;16501;51.462;14.346;2022-12-11T10:35:47;99440.06;;;-3.05;100.00
29569;BME280;16501;51.462;14.346;2022-12-11T10:38:31;99432.31;;;-3.17;100.00
29569;BME280;16501;51.462;14.346;2022-12-11T10:41:03;99436.50;;;-2.94;100.00
29569;BME280;16501;51.462;14.346;2022-12-11T10:43:36;99422.69;;;-2.83;100.00
29569;BME280;16501;51.462;14.346;2022-12-11T10:46:04;99446.72;;;-2.46;100.00
29569;BME280;16501;51.462;14.346;2022-12-11T10:48:30;99448.38;;;-2.56;100.00
29569;BME280;16501;51.462;14.346;2022-12-11T10:50:58;99430.47;;;-2.71;100.00
29569;BME280;16501;51.462;14.346;2022-12-11T10:53:27;99449.16;;;-2.55;100.00
29569;BME280;16501;51.462;14.346;2022-12-11T10:55:53;99447.63;;;-2.60;100.00
29569;BME280;16501;51.462;14.346;2022-12-11T10:58:22;99427.81;;;-2.86;100.00
29569;BME280;16501;51.462;14.346;2022-12-11T11:01:14;99439.84;;;-2.72;100.00
29569;BME280;16501;51.462;14.346;2022-12-11T11:03:52;99386.47;;;-3.16;100.00
29569;BME280;16501;51.462;14.346;2022-12-11T11:06:20;99428.50;;;-2.74;100.00
29569;BME280;16501;51.462;14.346;2022-12-11T11:08:48;99406.25;;;-2.83;100.00
29569;BME280;16501;51.462;14.346;2022-12-11T11:11:32;99404.63;;;-2.81;100.00
29569;BME280;16501;51.462;14.346;2022-12-11T11:14:18;99403.44;;;-2.76;100.00
29569;BME280;16501;51.462;14.346;2022-12-11T11:16:45;99425.22;;;-2.55;100.00
29569;BME280;16501;51.462;14.346;2022-12-11T11:21:51;99396.06;;;-2.87;100.00
29569;BME280;16501;51.462;14.346;2022-12-11T11:24:39;99397.59;;;-2.78;100.00
29569;BME280;16501;51.462;14.346;2022-12-11T11:27:12;99408.47;;;-2.68;100.00
29569;BME280;16501;51.462;14.346;2022-12-11T11:29:40;99409.25;;;-2.67;100.00
29569;BME280;16501;51.462;14.346;2022-12-11T11:32:25;99345.53;;;-2.93;100.00
29569;BME280;16501;51.462;14.346;2022-12-11T11:35:04;99402.84;;;-2.50;100.00
29569;BME280;16501;51.462;14.346;2022-12-11T11:37:32;99336.56;;;-2.97;100.00
29569;BME280;16501;51.462;14.346;2022-12-11T11:40:05;99372.91;;;-2.82;100.00
29569;BME280;16501;51.462;14.346;2022-12-11T11:45:15;99404.50;;;-2.59;100.00
29569;BME280;16501;51.462;14.346;2022-12-11T11:47:53;99404.53;;;-2.67;100.00
29569;BME280;16501;51.462;14.346;2022-12-11T11:50:33;99364.72;;;-2.86;100.00
29569;BME280;16501;51.462;14.346;2022-12-11T11:53:06;99382.22;;;-2.69;100.00
29569;BME280;16501;51.462;14.346;2022-12-11T11:58:13;99383.44;;;-2.73;100.00
29569;BME280;16501;51.462;14.346;2022-12-11T12:00:40;99364.28;;;-2.84;100.00
29569;BME280;16501;51.462;14.346;2022-12-11T12:03:11;99376.34;;;-2.71;100.00
29569;BME280;16501;51.462;14.346;2022-12-11T12:11:32;99391.94;;;-2.60;100.00
29569;BME280;16501;51.462;14.346;2022-12-11T12:14:17;99363.84;;;-2.79;100.00
29569;BME280;16501;51.462;14.346;2022-12-11T12:16:53;99392.31;;;-2.58;100.00
29569;BME280;16501;51.462;14.346;2022-12-11T12:20:02;99369.31;;;-2.75;100.00
29569;BME280;16501;51.462;14.346;2022-12-11T12:26:10;99392.72;;;-2.60;100.00
29569;BME280;16501;51.462;14.346;2022-12-11T12:37:36;99383.44;;;-2.73;100.00
29569;BME280;16501;51.462;14.346;2022-12-11T12:40:19;99380.28;;;-2.75;100.00
29569;BME280;16501;51.462;14.346;2022-12-11T12:43:22;99384.91;;;-2.65;100.00
29569;BME280;16501;51.462;14.346;2022-12-11T12:48:26;99377.09;;;-2.67;100.00
29569;BME280;16501;51.462;14.346;2022-12-11T12:50:52;99326.78;;;-2.98;100.00
29569;BME280;16501;51.462;14.346;2022-12-11T12:53:23;99364.75;;;-2.93;100.00
29569;BME280;16501;51.462;14.346;2022-12-11T12:55:50;99335.09;;;-3.12;100.00
29569;BME280;16501;51.462;14.346;2022-12-11T12:58:42;99356.59;;;-3.04;100.00
29569;BME280;16501;51.462;14.346;2022-12-11T13:03:48;99335.81;;;-3.01;100.00
29569;BME280;16501;51.462;14.346;2022-12-11T13:06:15;99342.84;;;-3.00;100.00
29569;BME280;16501;51.462;14.346;2022-12-11T13:08:52;99309.75;;;-3.24;100.00
29569;BME280;16501;51.462;14.346;2022-12-11T13:11:19;99332.78;;;-3.17;100.00
29569;BME280;16501;51.462;14.346;2022-12-11T13:14:01;99381.16;;;-2.82;100.00
29569;BME280;16501;51.462;14.346;2022-12-11T13:16:36;99371.31;;;-2.79;100.00
29569;BME280;16501;51.462;14.346;2022-12-11T13:19:15;99356.19;;;-3.02;100.00
29569;BME280;16501;51.462;14.346;2022-12-11T13:21:42;99327.25;;;-3.10;100.00
29569;BME280;16501;51.462;14.346;2022-12-11T13:26:45;99368.00;;;-3.12;100.00
29569;BME280;16501;51.462;14.346;2022-12-11T13:29:35;99354.66;;;-3.07;100.00
29569;BME280;16501;51.462;14.346;2022-12-11T13:34:32;99301.63;;;-3.45;100.00
29569;BME280;16501;51.462;14.346;2022-12-11T13:37:00;99338.69;;;-3.23;100.00
29569;BME280;16501;51.462;14.346;2022-12-11T13:39:36;99332.41;;;-3.19;100.00
29569;BME280;16501;51.462;14.346;2022-12-11T13:42:05;99357.38;;;-3.03;100.00
29569;BME280;16501;51.462;14.346;2022-12-11T13:44:40;99365.59;;;-3.03;100.00
29569;BME280;16501;51.462;14.346;2022-12-11T13:47:11;99308.25;;;-3.35;100.00
29569;BME280;16501;51.462;14.346;2022-12-11T13:49:39;99282.81;;;-3.43;100.00
29569;BME280;16501;51.462;14.346;2022-12-11T13:52:06;99314.41;;;-3.20;100.00
29569;BME280;16501;51.462;14.346;2022-12-11T13:54:34;99341.28;;;-2.97;100.00